Dades meteomassalio
Diari Summary for Maig 14, 2017 Units:  Metric    English   Both
« Previous Day
Next Day »
Diari Semanal Mensual Anual Personalitzat
  Maxima: Minima: Mijana:
Temperatura: -17.8 °C -11.3 °C -6.9 °C
Rosada: -17.8 °C -14.2 °C -12.1 °C
Humitat: Humidity % 28 % 60 %
Velocitat del vent: 0 km/h 0 km/h 7.9 km/h
Racha vent: 0 km/h - -
Vent:- - SSW
Pressio: 0 hPa 34510.1 hPa -
Pluja: 0 mm    
Historical Graphs
 
 
Tabular Data for Maig 14, 2017
Time Temperature Dew Point Pressure Wind Wind Speed Wind Gust Humidity Rainfall Rate (Hourly) solar Conditions
-17.8 °C -17.8 °C 0 hPa Calm     Humidity % 0 mm SolarRadiationWatts/m^2 W/m2 Conditions
00:00 -9.1 °C -10.7 °C 34510.1 hPa Calm     83 % 0 mm 0.0 W/m2 CLR
00:05 -9.2 °C -10.6 °C 34510.1 hPa Calm     85 % 0 mm 0.0 W/m2 RA
00:10 -9.4 °C -10.7 °C 34510.1 hPa Calm     86 % 0 mm 0.0 W/m2 CLR
00:15 -9.6 °C -10.8 °C 34510.1 hPa SSW 9 km/h   87 % 0 mm 0.0 W/m2 CLR
00:20 -9.7 °C -10.9 °C 34510.1 hPa Calm     87 % 0 mm 0.0 W/m2 CLR
00:25 -9.7 °C -10.8 °C 34510.1 hPa Calm     88 % 0 mm 0.0 W/m2 CLR
00:30 -9.8 °C -10.9 °C 34510.1 hPa Calm     88 % 0 mm 0.0 W/m2 CLR
00:35 -9.8 °C -10.8 °C 34510.1 hPa Calm     89 % 0 mm 0.0 W/m2 CLR
00:40 -9.8 °C -10.8 °C 34510.1 hPa Calm     89 % 0 mm 0.0 W/m2 CLR
00:45 -9.9 °C -10.9 °C 34510.1 hPa Calm     89 % 0 mm 0.0 W/m2 CLR
00:50 -9.9 °C -10.9 °C 34510.1 hPa Calm     89 % 0 mm 0.0 W/m2 CLR
00:55 -9.9 °C -10.9 °C 34520.3 hPa Calm     90 % 0 mm 0.0 W/m2 CLR
01:00 -9.9 °C -10.9 °C 34520.3 hPa Calm     90 % 0 mm 0.0 W/m2 CLR
01:05 -9.9 °C -10.9 °C 34520.3 hPa Calm     90 % 0 mm 0.0 W/m2 CLR
01:10 -9.9 °C -10.9 °C 34520.3 hPa Calm     90 % 0 mm 0.0 W/m2 CLR
01:15 -10 °C -10.9 °C 34520.3 hPa Calm     90 % 0 mm 0.0 W/m2 CLR
01:20 -10.1 °C -10.9 °C 34520.3 hPa Calm     90 % 0 mm 0.0 W/m2 CLR
01:25 -10.1 °C -11 °C 34520.3 hPa Calm     90 % 0 mm 0.0 W/m2 CLR
01:30 -10.1 °C -11 °C 34520.3 hPa Calm     90 % 0 mm 0.0 W/m2 CLR
01:35 -10.1 °C -11 °C 34520.3 hPa Calm     90 % 0 mm 0.0 W/m2 CLR
01:40 -10.2 °C -11.1 °C 34520.3 hPa Calm     90 % 0 mm 0.0 W/m2 CLR
01:45 -10.2 °C -11.1 °C 34533.8 hPa Calm     90 % 0 mm 0.0 W/m2 CLR
01:50 -10.2 °C -11.1 °C 34533.8 hPa Calm     90 % 0 mm 0.0 W/m2 CLR
01:55 -10.2 °C -11.1 °C 34533.8 hPa Calm     90 % 0 mm 0.0 W/m2 CLR
02:00 -10.2 °C -11.1 °C 34533.8 hPa Calm     90 % 0 mm 0.0 W/m2 CLR
02:05 -10.2 °C -11.1 °C 34533.8 hPa Calm     90 % 0 mm 0.0 W/m2 CLR
02:10 -10.1 °C -11 °C 34533.8 hPa Calm     90 % 0 mm 0.0 W/m2 CLR
02:15 -10.1 °C -11 °C 34533.8 hPa Calm     90 % 0 mm 0.0 W/m2 CLR
02:20 -10.2 °C -11.1 °C 34533.8 hPa Calm     90 % 0 mm 0.0 W/m2 CLR
02:25 -10.2 °C -11.1 °C 34544 hPa Calm     90 % 0 mm 0.0 W/m2 CLR
02:30 -10.2 °C -11.1 °C 34544 hPa Calm     90 % 0 mm 0.0 W/m2 CLR
02:35 -10.3 °C -11.2 °C 34544 hPa Calm     90 % 0 mm 0.0 W/m2 CLR
02:40 -10.3 °C -11.2 °C 34544 hPa Calm     90 % 0 mm 0.0 W/m2 CLR
02:45 -10.3 °C -11.2 °C 34544 hPa Calm     90 % 0 mm 0.0 W/m2 CLR
02:50 -10.4 °C -11.3 °C 34544 hPa Calm     90 % 0 mm 0.0 W/m2 CLR
02:55 -10.4 °C -11.3 °C 34554.1 hPa Calm     90 % 0 mm 0.0 W/m2 CLR
03:00 -10.4 °C -11.3 °C 34554.1 hPa Calm     90 % 0 mm 0.0 W/m2 CLR
03:05 -10.5 °C -11.4 °C 34544 hPa Calm     90 % 0 mm 0.0 W/m2 CLR
03:10 -10.5 °C -11.4 °C 34544 hPa Calm     90 % 0 mm 0.0 W/m2 CLR
03:15 -10.5 °C -11.4 °C 34544 hPa SW 2.6 km/h 2.6 km/h 90 % 0 mm 0.0 W/m2 CLR
03:20 -10.5 °C -11.4 °C 34544 hPa Calm     90 % 0 mm 0.0 W/m2 CLR
03:25 -10.4 °C -11.3 °C 34544 hPa Calm     90 % 0 mm 0.0 W/m2 CLR
03:30 -10.4 °C -11.3 °C 34544 hPa Calm     90 % 0 mm 0.0 W/m2 CLR
03:35 -10.5 °C -11.4 °C 34544 hPa Calm     90 % 0 mm 0.0 W/m2 CLR
03:40 -10.5 °C -11.4 °C 34544 hPa Calm     90 % 0 mm 0.0 W/m2 CLR
03:45 -10.6 °C -11.4 °C 34544 hPa Calm     90 % 0 mm 0.0 W/m2 CLR
03:50 -10.6 °C -11.5 °C 34544 hPa Calm     90 % 0 mm 0.0 W/m2 CLR
03:55 -10.6 °C -11.4 °C 34544 hPa Calm     91 % 0 mm 0.0 W/m2 CLR
04:00 -10.7 °C -11.6 °C 34544 hPa Calm     90 % 0 mm 0.0 W/m2 CLR
04:05 -10.6 °C -11.4 °C 34544 hPa Calm     91 % 0 mm 0.0 W/m2 CLR
04:10 -10.6 °C -11.4 °C 34544 hPa Calm     91 % 0 mm 0.0 W/m2 CLR
04:15 -10.7 °C -11.6 °C 34544 hPa Calm     90 % 0 mm 0.0 W/m2 CLR
04:20 -10.7 °C -11.6 °C 34544 hPa Calm     91 % 0 mm 0.0 W/m2 CLR
04:25 -10.8 °C -11.6 °C 34544 hPa Calm     91 % 0 mm 0.0 W/m2 CLR
04:30 -10.7 °C -11.6 °C 34544 hPa Calm     91 % 0 mm 0.0 W/m2 CLR
04:35 -10.7 °C -11.6 °C 34544 hPa Calm     91 % 0 mm 0.0 W/m2 CLR
04:40 -10.8 °C -11.6 °C 34554.1 hPa Calm     91 % 0 mm 0.0 W/m2 CLR
04:45 -10.8 °C -11.6 °C 34554.1 hPa Calm     91 % 0 mm 0.0 W/m2 CLR
04:50 -10.9 °C -11.7 °C 34554.1 hPa Calm     91 % 0 mm 0.0 W/m2 CLR
04:55 -10.8 °C -11.6 °C 34554.1 hPa Calm     91 % 0 mm 0.0 W/m2 CLR
05:00 -10.8 °C -11.6 °C 34554.1 hPa Calm     91 % 0 mm 0.0 W/m2 CLR
05:05 -10.8 °C -11.6 °C 34554.1 hPa Calm     91 % 0 mm 0.0 W/m2 CLR
05:06 -10.8 °C -11.6 °C 34554.1 hPa Calm     91 % 0 mm 0.0 W/m2 CLR
05:11 -10.8 °C -11.6 °C 34554.1 hPa Calm     91 % 0 mm 0.0 W/m2 CLR
05:16 -10.9 °C -11.7 °C 34554.1 hPa Calm     91 % 0 mm 0.0 W/m2 CLR
05:21 -10.9 °C -11.7 °C 34554.1 hPa Calm     91 % 0 mm 0.0 W/m2 CLR
05:26 -10.9 °C -11.7 °C 34554.1 hPa Calm     91 % 0 mm 0.0 W/m2 CLR
05:31 -10.9 °C -11.7 °C 34554.1 hPa Calm     91 % 0 mm 0.0 W/m2 CLR
05:36 -10.9 °C -11.7 °C 34554.1 hPa Calm     91 % 0 mm 0.0 W/m2 CLR
05:41 -10.9 °C -11.7 °C 34554.1 hPa Calm     91 % 0 mm 0.0 W/m2 CLR
05:46 -10.9 °C -11.7 °C 34554.1 hPa Calm     91 % 0 mm 0.0 W/m2 CLR
05:51 -10.9 °C -11.7 °C 34567.7 hPa Calm     91 % 0 mm 0.0 W/m2 CLR
05:56 -10.9 °C -11.7 °C 34567.7 hPa Calm     91 % 0 mm 0.0 W/m2 CLR
06:01 -10.9 °C -11.8 °C 34567.7 hPa Calm     91 % 0 mm 0.0 W/m2 CLR
06:06 -10.9 °C -11.8 °C 34567.7 hPa Calm     91 % 0 mm 0.0 W/m2 CLR
06:11 -10.9 °C -11.7 °C 34567.7 hPa Calm     91 % 0 mm 0.0 W/m2 CLR
06:12 -10.9 °C -11.7 °C 34554.1 hPa Calm     91 % 0 mm 0.0 W/m2 CLR
06:17 -10.9 °C -11.7 °C 34567.7 hPa Calm     91 % 0 mm 0.0 W/m2 CLR
06:22 -11 °C -11.8 °C 34567.7 hPa Calm     91 % 0 mm 0.0 W/m2 CLR
06:27 -11.1 °C -11.8 °C 34567.7 hPa Calm     91 % 0 mm 0.0 W/m2 CLR
06:32 -11.1 °C -11.9 °C 34577.8 hPa Calm     91 % 0 mm 0.0 W/m2 OVC
06:37 -11.1 °C -11.9 °C 34577.8 hPa Calm     91 % 0 mm 0.0 W/m2 OVC
06:42 -11.2 °C -11.9 °C 34591.4 hPa Calm     91 % 0 mm 0.0 W/m2 OVC
06:47 -11.2 °C -12 °C 34591.4 hPa Calm     91 % 0 mm 0.0 W/m2 OVC
06:52 -11.2 °C -12.1 °C 34591.4 hPa Calm     91 % 0 mm 0.0 W/m2 OVC
06:57 -11.3 °C -12.1 °C 34591.4 hPa Calm     91 % 0 mm 5.0 W/m2 OVC
07:02 -11.3 °C -12.1 °C 34591.4 hPa Calm     91 % 0 mm 7.0 W/m2 BKN
07:07 -11.3 °C -12.1 °C 34601.5 hPa Calm     92 % 0 mm 11.0 W/m2 BKN
07:12 -11.3 °C -12.1 °C 34601.5 hPa WSW 3.1 km/h   92 % 0 mm 19.0 W/m2 BKN
07:17 -11.3 °C -12 °C 34601.5 hPa Calm     92 % 0 mm 26.0 W/m2 BKN
07:22 -11.3 °C -12 °C 34601.5 hPa Calm     92 % 0 mm 33.0 W/m2 BKN
07:27 -11.2 °C -11.9 °C 34611.7 hPa Calm     92 % 0 mm 46.0 W/m2 SCT
07:32 -11.1 °C -11.8 °C 34611.7 hPa Calm     92 % 0 mm 72.0 W/m2 FEW
07:37 -11 °C -11.8 °C 34611.7 hPa Calm     91 % 0 mm 47.0 W/m2 SCT
07:42 -11 °C -11.8 °C 34625.2 hPa Calm     91 % 0 mm 91.0 W/m2 CLR
07:47 -11 °C -11.8 °C 34625.2 hPa Calm     91 % 0 mm 62.0 W/m2 FEW
07:52 -10.9 °C -11.7 °C 34625.2 hPa Calm     91 % 0 mm 114.0 W/m2 CLR
07:57 -10.9 °C -11.7 °C 34625.2 hPa Calm     91 % 0 mm 130.0 W/m2 CLR
08:02 -10.7 °C -11.5 °C 34625.2 hPa Calm     91 % 0 mm 144.0 W/m2 CLR
08:07 -10.6 °C -11.4 °C 34625.2 hPa Calm     91 % 0 mm 160.0 W/m2 CLR
08:12 -10.3 °C -11.2 °C 34625.2 hPa Calm     91 % 0 mm 179.0 W/m2 CLR
08:17 -10 °C -10.9 °C 34625.2 hPa SW 6 km/h 6 km/h 90 % 0 mm 193.0 W/m2 CLR
08:22 -9.7 °C -10.9 °C 34625.2 hPa WSW 9 km/h 9 km/h 86 % 0 mm 209.0 W/m2 CLR
08:27 -9.3 °C -10.9 °C 34625.2 hPa Calm     83 % 0 mm 223.0 W/m2 CLR
08:32 -9.1 °C -11 °C 34635.4 hPa Calm     80 % 0 mm 239.0 W/m2 CLR
08:37 -8.8 °C -10.7 °C 34635.4 hPa Calm     80 % 0 mm 257.0 W/m2 CLR
08:42 -8.6 °C -10.7 °C 34635.4 hPa SSW 3.1 km/h 3.1 km/h 78 % 0 mm 272.0 W/m2 CLR
08:47 -8.4 °C -10.8 °C 34635.4 hPa SSW 9 km/h 9 km/h 76 % 0 mm 288.0 W/m2 CLR
08:52 -8.3 °C -11.3 °C 34635.4 hPa WSW 11.9 km/h 11.9 km/h 71 % 0 mm 308.0 W/m2 CLR
08:57 -8.2 °C -11.2 °C 34635.4 hPa SW 9 km/h 9 km/h 71 % 0 mm 327.0 W/m2 CLR
09:02 -8 °C -11.1 °C 34635.4 hPa SW 9 km/h 9 km/h 70 % 0 mm 343.0 W/m2 CLR
09:07 -7.8 °C -11.2 °C 34635.4 hPa NW 18.2 km/h 18.2 km/h 68 % 0 mm 357.0 W/m2 CLR
09:12 -7.7 °C -11.6 °C 34635.4 hPa NW 17.9 km/h 17.9 km/h 64 % 0 mm 373.0 W/m2 CLR
09:17 -7.7 °C -11.8 °C 34635.4 hPa WNW 29.8 km/h 29.8 km/h 62 % 0 mm 392.0 W/m2 CLR
09:22 -7.6 °C -11.7 °C 34645.6 hPa WNW 17.9 km/h 17.9 km/h 62 % 0 mm 410.0 W/m2 CLR
09:27 -7.4 °C -11.9 °C 34645.6 hPa NW 23.8 km/h 23.8 km/h 60 % 0 mm 425.0 W/m2 CLR
09:32 -7.4 °C -11.9 °C 34645.6 hPa WNW 26.9 km/h 26.9 km/h 59 % 0 mm 439.0 W/m2 CLR
09:37 -7.3 °C -11.8 °C 34645.6 hPa NW 29.8 km/h 29.8 km/h 60 % 0 mm 454.0 W/m2 CLR
09:42 -7.3 °C -11.8 °C 34645.6 hPa NW 23.8 km/h 23.8 km/h 60 % 0 mm 60.0 W/m2 CLR
09:47 -7.3 °C -11.8 °C 34645.6 hPa NW 20.9 km/h 20.9 km/h 59 % 0 mm 169.0 W/m2 CLR
09:52 -7.2 °C -11.8 °C 34645.6 hPa NNW 20.8 km/h 20.8 km/h 59 % 0 mm 503.0 W/m2 CLR
09:57 -7.1 °C -11.7 °C 34659.1 hPa NW 15 km/h 15 km/h 59 % 0 mm 515.0 W/m2 CLR
10:02 -7.1 °C -11.8 °C 34659.1 hPa NW 28.5 km/h 28.5 km/h 58 % 0 mm 531.0 W/m2 CLR
10:07 -7.1 °C -11.9 °C 34659.1 hPa NW 20.8 km/h 20.8 km/h 57 % 0 mm 547.0 W/m2 CLR
10:12 -7 °C -11.7 °C 34659.1 hPa NNW 15 km/h 15 km/h 58 % 0 mm 561.0 W/m2 CLR
10:17 -6.9 °C -11.6 °C 34659.1 hPa NW 15 km/h 15 km/h 58 % 0 mm 575.0 W/m2 CLR
10:22 -6.9 °C -11.8 °C 34659.1 hPa NW 11.9 km/h   57 % 0 mm 591.0 W/m2 CLR
10:27 -6.8 °C -11.6 °C 34659.1 hPa NW 20.8 km/h 20.8 km/h 57 % 0 mm 603.0 W/m2 CLR
10:32 -6.6 °C -11.7 °C 34659.1 hPa NNW 26.9 km/h 26.9 km/h 56 % 0 mm 619.0 W/m2 CLR
10:37 -6.6 °C -11.6 °C 34659.1 hPa NNW 20.9 km/h 20.9 km/h 56 % 0 mm 631.0 W/m2 CLR
10:42 -6.4 °C -11.6 °C 34659.1 hPa WNW 20.9 km/h 20.9 km/h 55 % 0 mm 642.0 W/m2 CLR
10:47 -6.5 °C -11.8 °C 34659.1 hPa West 3.1 km/h   54 % 0 mm 659.0 W/m2 CLR
10:52 -6.3 °C -11.7 °C 34659.1 hPa North 32.8 km/h 32.8 km/h 54 % 0 mm 668.0 W/m2 CLR
10:57 -6.2 °C -11.7 °C 34669.3 hPa NNW 29.8 km/h 29.8 km/h 53 % 0 mm 682.0 W/m2 CLR
11:03 -6.2 °C -11.9 °C 34669.3 hPa West 5.1 km/h 5.6 km/h 52 % 0 mm 694.0 W/m2 CLR
11:08 -6.3 °C -11.8 °C 34659.1 hPa NW 15 km/h 18.8 km/h 53 % 0 mm 708.0 W/m2 CLR
11:13 -6.1 °C -11.6 °C 34659.1 hPa NNE 12.9 km/h 19.2 km/h 53 % 0 mm 724.0 W/m2 CLR
11:18 -5.9 °C -11.9 °C 34659.1 hPa North 26.9 km/h 26.9 km/h 50 % 0 mm 733.0 W/m2 CLR
11:23 -5.9 °C -12 °C 34669.3 hPa North 17.9 km/h 17.9 km/h 50 % 0 mm 745.0 W/m2 CLR
11:28 -5.8 °C -11.7 °C 34669.3 hPa North 29.8 km/h 29.8 km/h 51 % 0 mm 758.0 W/m2 CLR
11:33 -5.7 °C -11.8 °C 34669.3 hPa NW 18.2 km/h 18.2 km/h 50 % 0 mm 770.0 W/m2 CLR
11:38 -5.8 °C -12.2 °C 34669.3 hPa NW 23.8 km/h 23.8 km/h 48 % 0 mm 779.0 W/m2 CLR
11:43 -5.8 °C -12.5 °C 34669.3 hPa NNW 20.9 km/h 20.9 km/h 46 % 0 mm 788.0 W/m2 CLR
11:44 -5.8 °C -12.3 °C 34659.1 hPa NW 10.3 km/h 10.3 km/h 47 % 0 mm 789.0 W/m2 CLR
11:49 -5.7 °C -12.3 °C 34669.3 hPa NNE 23.8 km/h 23.8 km/h 47 % 0 mm 802.0 W/m2 CLR
11:54 -5.7 °C -12.3 °C 34669.3 hPa NNW 17.9 km/h 17.9 km/h 47 % 0 mm 809.0 W/m2 CLR
11:59 -5.6 °C -12.3 °C 34669.3 hPa North 11.9 km/h 11.9 km/h 46 % 0 mm 817.0 W/m2 CLR
12:04 -5.4 °C -12.2 °C 34669.3 hPa West 11.9 km/h   46 % 0 mm 828.0 W/m2 CLR
12:09 -5.4 °C -12.1 °C 34669.3 hPa NW 23.8 km/h 23.8 km/h 46 % 0 mm 837.0 W/m2 CLR
12:14 -5.3 °C -12.3 °C 34659.1 hPa North 23.8 km/h 23.8 km/h 45 % 0 mm 842.0 W/m2 CLR
12:19 -5.2 °C -12.4 °C 34669.3 hPa ENE 17.9 km/h 17.9 km/h 44 % 0 mm 851.0 W/m2 CLR
12:24 -5.1 °C -12.2 °C 34659.1 hPa NE 10.3 km/h 10.3 km/h 44 % 0 mm 860.0 W/m2 CLR
12:29 -4.9 °C -12.2 °C 34659.1 hPa NW 20.9 km/h 20.9 km/h 44 % 0 mm 868.0 W/m2 CLR
12:34 -4.9 °C -12.3 °C 34659.1 hPa Calm     43 % 0 mm 874.0 W/m2 CLR
12:39 -4.8 °C -12 °C 34659.1 hPa North 18.2 km/h 18.2 km/h 44 % 0 mm 877.0 W/m2 CLR
12:44 -4.8 °C -12.4 °C 34659.1 hPa North 17.9 km/h 17.9 km/h 42 % 0 mm 888.0 W/m2 CLR
12:49 -4.8 °C -12.4 °C 34659.1 hPa North 26.9 km/h 26.9 km/h 42 % 0 mm 888.0 W/m2 CLR
12:54 -4.8 °C -12.4 °C 34659.1 hPa North 26.9 km/h 26.9 km/h 42 % 0 mm 893.0 W/m2 CLR
12:59 -4.8 °C -12.4 °C 34659.1 hPa NW 29.8 km/h 29.8 km/h 42 % 0 mm 900.0 W/m2 CLR
13:04 -4.7 °C -12.3 °C 34659.1 hPa Calm   2.6 km/h 42 % 0 mm 907.0 W/m2 CLR
13:09 -4.5 °C -12.3 °C 34659.1 hPa North 26.9 km/h 26.9 km/h 41 % 0 mm 909.0 W/m2 CLR
13:14 -4.6 °C -12.2 °C 34659.1 hPa ENE 20.9 km/h 20.9 km/h 42 % 0 mm 914.0 W/m2 CLR
13:19 -4.6 °C -12.6 °C 34659.1 hPa WNW 26.9 km/h 26.9 km/h 40 % 0 mm 926.0 W/m2 CLR
13:24 -4.5 °C -12.6 °C 34659.1 hPa NNW 32.8 km/h 32.8 km/h 40 % 0 mm 923.0 W/m2 CLR
13:29 -4.5 °C -12.5 °C 34645.6 hPa NW 5.1 km/h   40 % 0 mm 926.0 W/m2 CLR
13:34 -4.5 °C -12.7 °C 34659.1 hPa Calm     39 % 0 mm 930.0 W/m2 CLR
13:39 -4.3 °C -12.6 °C 34645.6 hPa Calm     39 % 0 mm 928.0 W/m2 CLR
13:45 -4.3 °C -12.5 °C 34645.6 hPa NE 23.8 km/h 23.8 km/h 39 % 0 mm 940.0 W/m2 CLR
13:50 -4.2 °C -12.3 °C 34645.6 hPa SW 17.9 km/h 17.9 km/h 40 % 0 mm 946.0 W/m2 CLR
13:54 -4.1 °C -12.6 °C 34645.6 hPa North 11.9 km/h 11.9 km/h 38 % 0 mm 998.0 W/m2 CLR
14:00 -3.9 °C -12.7 °C 34645.6 hPa West 15.6 km/h 15.6 km/h 37 % 0 mm 984.0 W/m2 CLR
14:05 -4 °C -12.5 °C 34645.6 hPa West 6 km/h 6 km/h 38 % 0 mm 979.0 W/m2 CLR
14:09 -4 °C -12.7 °C 34645.6 hPa West 15 km/h 15 km/h 37 % 0 mm 1000.0 W/m2 CLR
14:15 -4.1 °C -12.8 °C 34645.6 hPa NNW 15.6 km/h 15.6 km/h 37 % 0 mm 1000.0 W/m2 CLR
14:20 -4 °C -12.9 °C 34645.6 hPa North 32.8 km/h 32.8 km/h 36 % 0 mm 1032.0 W/m2 CLR
14:25 -4 °C -12.7 °C 34645.6 hPa ENE 17.9 km/h 17.9 km/h 37 % 0 mm 1013.0 W/m2 CLR
14:30 -3.8 °C -13.1 °C 34645.6 hPa East 6 km/h 6 km/h 35 % 0 mm 1058.0 W/m2 CLR
14:35 -3.7 °C -12.9 °C 34635.4 hPa Calm     35 % 0 mm 427.0 W/m2 CLR
14:40 -3.8 °C -12.8 °C 34635.4 hPa NNW 10.3 km/h 10.3 km/h 36 % 0 mm 202.0 W/m2 CLR
14:45 -3.9 °C -12.9 °C 34635.4 hPa NW 17.9 km/h 17.9 km/h 36 % 0 mm 262.0 W/m2 CLR
14:50 -4.1 °C -12.8 °C 34635.4 hPa Calm     37 % 0 mm 1056.0 W/m2 CLR
14:55 -3.9 °C -12.9 °C 34635.4 hPa Calm     36 % 0 mm 1025.0 W/m2 CLR
15:00 -3.8 °C -13 °C 34635.4 hPa SE 15 km/h 15 km/h 35 % 0 mm 1013.0 W/m2 CLR
15:05 -3.8 °C -13 °C 34635.4 hPa Calm     35 % 0 mm 988.0 W/m2 CLR
15:10 -3.7 °C -12.9 °C 34635.4 hPa SE 7.7 km/h 7.7 km/h 35 % 0 mm 227.0 W/m2 CLR
15:15 -3.7 °C -12.9 °C 34635.4 hPa Calm   0.3 km/h 35 % 0 mm 1007.0 W/m2 CLR
15:20 -3.7 °C -13.1 °C 34625.2 hPa Calm     34 % 0 mm 232.0 W/m2 CLR
15:25 -3.6 °C -12.6 °C 34625.2 hPa ENE 9 km/h 9 km/h 36 % 0 mm 905.0 W/m2 CLR
15:30 -3.4 °C -12.9 °C 34625.2 hPa ENE 23.8 km/h 23.8 km/h 34 % 0 mm 893.0 W/m2 CLR
15:35 -3.4 °C -12.9 °C 34625.2 hPa ESE 9 km/h 9 km/h 34 % 0 mm 879.0 W/m2 CLR
15:40 -3.4 °C -13.2 °C 34625.2 hPa East 15 km/h 15 km/h 33 % 0 mm 886.0 W/m2 CLR
15:45 -3.4 °C -12.9 °C 34625.2 hPa NE 15 km/h   34 % 0 mm 896.0 W/m2 CLR
15:50 -3.3 °C -13.1 °C 34625.2 hPa East 17.9 km/h 17.9 km/h 33 % 0 mm 870.0 W/m2 CLR
15:51 -3.3 °C -13.1 °C 34625.2 hPa NE 17.9 km/h 17.9 km/h 33 % 0 mm 867.0 W/m2 CLR
15:56 -3.3 °C -13 °C 34611.7 hPa NW 9 km/h 9 km/h 33 % 0 mm 872.0 W/m2 CLR
16:01 -3 °C -12.8 °C 34611.7 hPa NW 18.2 km/h 18.2 km/h 33 % 0 mm 856.0 W/m2 CLR
16:06 -2.9 °C -12.9 °C 34611.7 hPa NNW 11.9 km/h 11.9 km/h 32 % 0 mm 835.0 W/m2 CLR
16:11 -2.9 °C -12.9 °C 34611.7 hPa NNE 15.6 km/h 15.6 km/h 32 % 0 mm 837.0 W/m2 CLR
16:16 -2.8 °C -12.6 °C 34611.7 hPa NNE 20.8 km/h 20.8 km/h 33 % 0 mm 849.0 W/m2 CLR
16:21 -3.2 °C -13.2 °C 34611.7 hPa NNW 26.9 km/h 26.9 km/h 32 % 0 mm 113.0 W/m2 CLR
16:26 -3.4 °C -13.4 °C 34611.7 hPa Calm     32 % 0 mm 134.0 W/m2 CLR
16:32 -3.5 °C -13.4 °C 34611.7 hPa NE 9 km/h 9 km/h 32 % 0 mm 795.0 W/m2 CLR
16:37 -3.4 °C -13.4 °C 34611.7 hPa Calm     32 % 0 mm 773.0 W/m2 CLR
16:42 -3.5 °C -13.5 °C 34601.5 hPa Calm     32 % 0 mm 118.0 W/m2 CLR
16:47 -3.6 °C -13.3 °C 34601.5 hPa Calm     33 % 0 mm 162.0 W/m2 CLR
16:52 -3.5 °C -12.7 °C 34601.5 hPa ENE 10.3 km/h 10.3 km/h 35 % 0 mm 770.0 W/m2 CLR
16:57 -3.1 °C -12.9 °C 34601.5 hPa NE 9 km/h 9 km/h 33 % 0 mm 740.0 W/m2 CLR
17:02 -2.9 °C -13.3 °C 34591.4 hPa NE 23.8 km/h 23.8 km/h 31 % 0 mm 613.0 W/m2 CLR
17:07 -2.9 °C -13.2 °C 34591.4 hPa NNE 15 km/h 15 km/h 31 % 0 mm 626.0 W/m2 CLR
17:12 -2.9 °C -13.5 °C 34591.4 hPa NNE 9 km/h 9 km/h 30 % 0 mm 729.0 W/m2 CLR
17:17 -2.9 °C -13.5 °C 34591.4 hPa NNE 9 km/h 9 km/h 30 % 0 mm 636.0 W/m2 CLR
17:22 -2.9 °C -13.5 °C 34591.4 hPa NW 12.9 km/h 12.9 km/h 30 % 0 mm 380.0 W/m2 CLR
17:27 -3 °C -13.3 °C 34591.4 hPa NNE 20.9 km/h 20.9 km/h 31 % 0 mm 561.0 W/m2 CLR
17:32 -3.1 °C -13.3 °C 34591.4 hPa North 29.8 km/h 29.8 km/h 31 % 0 mm 628.0 W/m2 CLR
17:37 -3 °C -13.3 °C 34591.4 hPa NNE 18.2 km/h 18.2 km/h 31 % 0 mm 555.0 W/m2 CLR
17:42 -3 °C -13.3 °C 34591.4 hPa NE 26.9 km/h 26.9 km/h 31 % 0 mm 584.0 W/m2 CLR
17:47 -3 °C -13.3 °C 34591.4 hPa NNW 23.8 km/h 23.8 km/h 31 % 0 mm 624.0 W/m2 CLR
17:52 -2.9 °C -13.2 °C 34591.4 hPa North 15 km/h 15 km/h 31 % 0 mm 601.0 W/m2 CLR
17:57 -2.8 °C -13.4 °C 34591.4 hPa NNE 11.9 km/h 11.9 km/h 30 % 0 mm 578.0 W/m2 CLR
18:02 -2.8 °C -13.1 °C 34591.4 hPa NNE 17.9 km/h 17.9 km/h 31 % 0 mm 541.0 W/m2 CLR
18:07 -2.8 °C -13.2 °C 34591.4 hPa NNE 26.9 km/h 26.9 km/h 31 % 0 mm 515.0 W/m2 CLR
18:12 -2.8 °C -13.4 °C 34591.4 hPa NE 6 km/h   30 % 0 mm 494.0 W/m2 CLR
18:17 -2.8 °C -13.4 °C 34591.4 hPa NNE 25.9 km/h 25.9 km/h 30 % 0 mm 471.0 W/m2 CLR
18:22 -2.7 °C -13.3 °C 34601.5 hPa North 20.9 km/h 20.9 km/h 30 % 0 mm 454.0 W/m2 CLR
18:27 -2.8 °C -13.7 °C 34601.5 hPa NE 9 km/h 9 km/h 29 % 0 mm 438.0 W/m2 CLR
18:32 -2.8 °C -13.7 °C 34601.5 hPa ENE 3.1 km/h 3.1 km/h 29 % 0 mm 420.0 W/m2 CLR
18:37 -2.9 °C -13.4 °C 34601.5 hPa NNW 9 km/h 9 km/h 30 % 0 mm 401.0 W/m2 CLR
18:42 -2.7 °C -13.6 °C 34601.5 hPa North 23.8 km/h 23.8 km/h 29 % 0 mm 387.0 W/m2 CLR
18:47 -2.8 °C -13.7 °C 34601.5 hPa North 35.7 km/h 35.7 km/h 29 % 0 mm 371.0 W/m2 CLR
18:52 -2.9 °C -14 °C 34601.5 hPa NNW 31.1 km/h 31.1 km/h 28 % 0 mm 355.0 W/m2 CLR
18:57 -2.9 °C -13.8 °C 34601.5 hPa North 9 km/h 9 km/h 29 % 0 mm 336.0 W/m2 CLR
19:02 -3 °C -13.8 °C 34601.5 hPa North 29.8 km/h 29.8 km/h 29 % 0 mm 323.0 W/m2 CLR
19:07 -3 °C -13.6 °C 34601.5 hPa NNE 15 km/h 15 km/h 30 % 0 mm 309.0 W/m2 CLR
19:12 -3 °C -13.8 °C 34601.5 hPa North 6 km/h 6 km/h 29 % 0 mm 292.0 W/m2 CLR
19:17 -2.9 °C -13.8 °C 34601.5 hPa Calm     29 % 0 mm 276.0 W/m2 CLR
19:22 -2.9 °C -13.8 °C 34591.4 hPa NE 10.3 km/h 10.3 km/h 29 % 0 mm 258.0 W/m2 CLR
19:27 -3 °C -14.1 °C 34601.5 hPa North 9 km/h   28 % 0 mm 243.0 W/m2 CLR
19:32 -3 °C -13.8 °C 34601.5 hPa Calm     29 % 0 mm 225.0 W/m2 CLR
19:37 -2.9 °C -14.1 °C 34601.5 hPa Calm     28 % 0 mm 207.0 W/m2 CLR
19:42 -2.8 °C -13.7 °C 34601.5 hPa NNW 9 km/h 9 km/h 29 % 0 mm 188.0 W/m2 CLR
19:47 -2.9 °C -14.1 °C 34601.5 hPa ENE 3.1 km/h 3.1 km/h 28 % 0 mm 171.0 W/m2 CLR
19:52 -3 °C -14.1 °C 34601.5 hPa Calm     28 % 0 mm 153.0 W/m2 CLR
19:57 -3.2 °C -13.9 °C 34601.5 hPa ENE 7.7 km/h 7.7 km/h 29 % 0 mm 135.0 W/m2 CLR
20:02 -3.3 °C -14.1 °C 34601.5 hPa NE 6 km/h 6 km/h 29 % 0 mm 120.0 W/m2 CLR
20:07 -3.3 °C -14.1 °C 34601.5 hPa Calm     29 % 0 mm 102.0 W/m2 CLR
20:12 -3.3 °C -14.1 °C 34611.7 hPa Calm     29 % 0 mm 88.0 W/m2 CLR
20:17 -3.4 °C -14.2 °C 34611.7 hPa NE 6 km/h 6 km/h 29 % 0 mm 74.0 W/m2 FEW
20:22 -3.4 °C -13.9 °C 34611.7 hPa ENE 9 km/h 9 km/h 30 % 0 mm 62.0 W/m2 SCT
20:23 -3.5 °C -14 °C 34611.7 hPa NE 12.9 km/h 12.9 km/h 30 % 0 mm 60.0 W/m2 SCT
20:28 -3.6 °C -14.1 °C 34611.7 hPa NE 9 km/h 9 km/h 30 % 0 mm 39.0 W/m2 BKN
20:33 -3.7 °C -13.9 °C 34611.7 hPa Calm     31 % 0 mm 35.0 W/m2 BKN
20:38 -3.7 °C -13.9 °C 34611.7 hPa Calm     31 % 0 mm 26.0 W/m2 BKN
20:43 -3.8 °C -13.7 °C 34625.2 hPa Calm     32 % 0 mm 19.0 W/m2 BKN
20:48 -3.9 °C -13.6 °C 34625.2 hPa Calm     33 % 0 mm 14.0 W/m2 BKN
20:53 -4.2 °C -13.8 °C 34625.2 hPa Calm     33 % 0 mm 9.0 W/m2 BKN
20:58 -4.3 °C -13.9 °C 34635.4 hPa Calm     33 % 0 mm 7.0 W/m2 BKN
21:03 -4.3 °C -12.6 °C 34635.4 hPa ESE 9 km/h 9 km/h 39 % 0 mm 5.0 W/m2 OVC
21:08 -4.5 °C -12.3 °C 34635.4 hPa Calm     41 % 0 mm 0.0 W/m2 OVC
21:13 -4.6 °C -12 °C 34635.4 hPa SE 15 km/h 15 km/h 43 % 0 mm 0.0 W/m2 OVC
21:18 -4.7 °C -11.7 °C 34635.4 hPa SSE 15.6 km/h 15.6 km/h 45 % 0 mm 0.0 W/m2 OVC
21:23 -4.8 °C -11.8 °C 34635.4 hPa SE 6 km/h 6 km/h 45 % 0 mm 0.0 W/m2 CLR
21:28 -4.9 °C -11.7 °C 34645.6 hPa Calm     46 % 0 mm 0.0 W/m2 CLR
21:33 -5.1 °C -11.3 °C 34645.6 hPa SE 9 km/h 9 km/h 49 % 0 mm 0.0 W/m2 CLR
21:38 -5.1 °C -11.3 °C 34645.6 hPa SSE 20.9 km/h 20.9 km/h 49 % 0 mm 0.0 W/m2 CLR
21:43 -5.1 °C -11.3 °C 34645.6 hPa SSE 11.9 km/h 11.9 km/h 49 % 0 mm 0.0 W/m2 CLR
21:48 -5.2 °C -11.3 °C 34645.6 hPa SSE 15 km/h 15 km/h 50 % 0 mm 0.0 W/m2 CLR
21:53 -5.3 °C -11.2 °C 34659.1 hPa SSE 17.9 km/h 17.9 km/h 51 % 0 mm 0.0 W/m2 CLR
21:58 -5.4 °C -11.1 °C 34659.1 hPa SSE 17.9 km/h 17.9 km/h 52 % 0 mm 0.0 W/m2 CLR
22:03 -5.4 °C -11.2 °C 34659.1 hPa South 9 km/h 9 km/h 52 % 0 mm 0.0 W/m2 CLR
22:08 -5.5 °C -11.3 °C 34659.1 hPa South 9 km/h 9 km/h 52 % 0 mm 0.0 W/m2 CLR
22:13 -5.6 °C -11.2 °C 34669.3 hPa South 6 km/h 6 km/h 53 % 0 mm 0.0 W/m2 CLR
22:18 -5.7 °C -11.1 °C 34669.3 hPa South 9 km/h 9 km/h 54 % 0 mm 0.0 W/m2 CLR
22:23 -5.7 °C -11.1 °C 34669.3 hPa Calm     54 % 0 mm 0.0 W/m2 CLR
22:28 -5.8 °C -11.2 °C 34669.3 hPa Calm     54 % 0 mm 0.0 W/m2 CLR
22:33 -5.8 °C -11.2 °C 34669.3 hPa Calm     54 % 0 mm 0.0 W/m2 CLR
22:38 -6 °C -11.2 °C 34682.8 hPa Calm     55 % 0 mm 0.0 W/m2 CLR
22:43 -6.1 °C -11.3 °C 34682.8 hPa Calm     55 % 0 mm 0.0 W/m2 CLR
22:48 -6.2 °C -11.3 °C 34682.8 hPa Calm     56 % 0 mm 0.0 W/m2 CLR
22:53 -6.3 °C -11.3 °C 34682.8 hPa Calm     56 % 0 mm 0.0 W/m2 CLR
22:58 -6.4 °C -11.2 °C 34682.8 hPa Calm     58 % 0 mm 0.0 W/m2 CLR
23:03 -6.6 °C -11.3 °C 34682.8 hPa Calm     58 % 0 mm 0.0 W/m2 CLR
23:08 -6.6 °C -11.2 °C 34693 hPa Calm     59 % 0 mm 0.0 W/m2 CLR
23:13 -6.7 °C -11.3 °C 34693 hPa Calm     59 % 0 mm 0.0 W/m2 CLR
23:18 -6.8 °C -11.2 °C 34693 hPa Calm     60 % 0 mm 0.0 W/m2 CLR
23:23 -6.8 °C -11.2 °C 34693 hPa Calm     60 % 0 mm 0.0 W/m2 CLR
23:28 -6.8 °C -11.3 °C 34693 hPa Calm     60 % 0 mm 0.0 W/m2 CLR
23:33 -6.9 °C -11.2 °C 34693 hPa Calm     61 % 0 mm 0.0 W/m2 CLR
23:38 -7 °C -11.3 °C 34703.1 hPa Calm     61 % 0 mm 0.0 W/m2 CLR
23:43 -7.1 °C -11.3 °C 34703.1 hPa Calm     61 % 0 mm 0.0 W/m2 CLR
23:48 -7.1 °C -11.3 °C 34703.1 hPa Calm     62 % 0 mm 0.0 W/m2 CLR
23:53 -7.2 °C -11.3 °C 34703.1 hPa Calm     62 % 0 mm 0.0 W/m2 CLR
23:58 -7.2 °C -11.3 °C 34703.1 hPa SW 3.1 km/h 3.1 km/h 62 % 0 mm 0.0 W/m2 CLR
Lo Temps de Massalio
Compliments of Weather Underground - 1.25 mb